createdAt,value
2023-02-23T00:00:28.347Z,98714.28
2023-02-23T00:03:15.022Z,98707.53
2023-02-23T00:06:03.654Z,98750.41
2023-02-23T00:08:52.095Z,98721.16
2023-02-23T00:11:38.685Z,98736.59
2023-02-23T00:14:28.008Z,98720.22
2023-02-23T00:17:17.418Z,98710.81
2023-02-23T00:20:08.006Z,98721.16
2023-02-23T00:22:58.124Z,98733.25
2023-02-23T00:25:45.782Z,98689.34
2023-02-23T00:28:32.066Z,98710.03
2023-02-23T00:31:26.902Z,98728.13
2023-02-23T00:34:15.508Z,98701.41
2023-02-23T00:37:01.727Z,98721.22
2023-02-23T00:39:48.166Z,98726.38
2023-02-23T00:42:35.651Z,98720.28
2023-02-23T00:45:21.758Z,98701.41
2023-02-23T00:48:10.714Z,98725.47
2023-02-23T00:51:03.814Z,98725.53
2023-02-23T00:53:55.065Z,98654.03
2023-02-23T00:56:41.842Z,98718.63
2023-02-23T00:59:29.652Z,98724.63
2023-02-23T01:02:16.136Z,98667.03
2023-02-23T01:05:02.412Z,98714.41
2023-02-23T01:07:49.204Z,98702.31
2023-02-23T01:10:43.096Z,98698.94
2023-02-23T01:13:31.205Z,98695.34
2023-02-23T01:16:20.811Z,98712.59
2023-02-23T01:19:08.377Z,98691.94
2023-02-23T01:21:55.027Z,98702.28
2023-02-23T01:24:41.501Z,98723.78
2023-02-23T01:27:29.192Z,98712.50
2023-02-23T01:30:15.852Z,98702.34
2023-02-23T01:33:03.367Z,98691.06
2023-02-23T01:35:59.465Z,98689.38
2023-02-23T01:38:45.712Z,98694.66
2023-02-23T01:41:35.129Z,98718.66
2023-02-23T01:44:21.751Z,98719.50
2023-02-23T01:47:08.673Z,98689.34
2023-02-23T01:49:54.873Z,98688.53
2023-02-23T01:52:41.038Z,98686.81
2023-02-23T01:55:29.224Z,98698.03
2023-02-23T01:58:19.775Z,98714.44
2023-02-23T02:01:06.259Z,98647.28
2023-02-23T02:03:58.672Z,98707.53
2023-02-23T02:06:48.179Z,98705.94
2023-02-23T02:09:54.759Z,98683.47
2023-02-23T02:12:46.610Z,98718.00
2023-02-23T02:15:41.128Z,98698.16
2023-02-23T02:18:46.392Z,98700.69
2023-02-23T02:21:46.962Z,98702.41
2023-02-23T02:25:11.745Z,98696.38
2023-02-23T02:28:34.064Z,98696.38
2023-02-23T02:31:45.524Z,98699.94
2023-02-23T02:35:04.710Z,98699.03
2023-02-23T02:38:32.691Z,98668.16
2023-02-23T02:41:44.519Z,98692.25
2023-02-23T02:44:57.631Z,98654.28
2023-02-23T02:48:06.400Z,98685.25
2023-02-23T02:51:03.577Z,98688.66
2023-02-23T02:53:56.039Z,98686.94
2023-02-23T02:56:44.905Z,98689.50
2023-02-23T03:00:00.189Z,98689.59
2023-02-23T03:03:07.182Z,98693.88
2023-02-23T03:06:13.012Z,98683.53
2023-02-23T03:09:32.931Z,98656.97
2023-02-23T03:13:10.363Z,98658.72
2023-02-23T03:16:39.717Z,98673.41
2023-02-23T03:19:48.873Z,98663.84
2023-02-23T03:23:00.269Z,98681.94
2023-02-23T03:26:30.195Z,98687.06
2023-02-23T03:29:44.139Z,98695.59
2023-02-23T03:33:06.746Z,98691.28
2023-02-23T03:36:34.836Z,98673.16
2023-02-23T03:40:15.723Z,98699.16
2023-02-23T03:43:24.944Z,98695.75
2023-02-23T03:46:32.822Z,98694.03
2023-02-23T03:49:40.061Z,98682.84
2023-02-23T03:52:53.410Z,98678.38
2023-02-23T03:56:04.548Z,98694.75
2023-02-23T03:59:15.939Z,98688.66
2023-02-23T04:02:22.331Z,98673.97
2023-02-23T04:05:35.045Z,98693.00
2023-02-23T04:08:42.877Z,98693.81
2023-02-23T04:11:58.489Z,98698.09
2023-02-23T04:15:03.501Z,98699.91
2023-02-23T04:17:49.963Z,98669.69
2023-02-23T04:20:36.487Z,98696.38
2023-02-23T04:23:23.727Z,98683.56
2023-02-23T04:26:10.100Z,98705.03
2023-02-23T04:28:56.371Z,98680.03
2023-02-23T04:31:42.923Z,98702.31
2023-02-23T04:34:29.261Z,98707.53
2023-02-23T04:37:15.800Z,98676.63
2023-02-23T04:40:02.014Z,98701.47
2023-02-23T04:42:48.269Z,98691.25
2023-02-23T04:45:34.418Z,98673.94
2023-02-23T04:48:21.031Z,98700.66
2023-02-23T04:51:07.285Z,98675.66
2023-02-23T04:53:54.090Z,98701.41
2023-02-23T04:56:40.299Z,98684.22
2023-02-23T04:59:26.984Z,98672.22
2023-02-23T05:02:13.542Z,98705.75
2023-02-23T05:05:01.268Z,98682.53
2023-02-23T05:07:47.999Z,98704.03
2023-02-23T05:10:34.694Z,98699.66
2023-02-23T05:13:20.846Z,98686.66
2023-02-23T05:16:07.783Z,98702.16
2023-02-23T05:18:54.434Z,98706.38
2023-02-23T05:21:41.424Z,98691.66
2023-02-23T05:24:27.846Z,98708.88
2023-02-23T05:27:15.516Z,98701.06
2023-02-23T05:30:02.444Z,98657.09
2023-02-23T05:32:49.327Z,98708.09
2023-02-23T05:35:35.684Z,98717.41
2023-02-23T05:38:21.983Z,98716.47
2023-02-23T05:41:11.372Z,98716.41
2023-02-23T05:43:57.573Z,98716.31
2023-02-23T05:46:46.427Z,98711.19
2023-02-23T05:49:32.657Z,98682.78
2023-02-23T05:52:19.263Z,98680.19
2023-02-23T05:55:06.497Z,98688.88
2023-02-23T05:57:53.049Z,98617.41
2023-02-23T06:00:40.006Z,98676.88
2023-02-23T06:03:26.950Z,98707.94
2023-02-23T06:06:13.957Z,98711.41
2023-02-23T06:09:00.421Z,98695.00
2023-02-23T06:11:46.826Z,98660.47
2023-02-23T06:14:33.413Z,98685.38
2023-02-23T06:17:19.698Z,98713.91
2023-02-23T06:20:07.319Z,98681.91
2023-02-23T06:22:53.829Z,98725.88
2023-02-23T06:25:41.069Z,98727.59
2023-02-23T06:28:29.023Z,98703.47
2023-02-23T06:31:15.586Z,98685.41
2023-02-23T06:34:01.976Z,98717.31
2023-02-23T06:36:48.340Z,98710.44
2023-02-23T06:39:34.851Z,98650.16
2023-02-23T06:42:21.226Z,98736.44
2023-02-23T06:45:07.975Z,98746.78
2023-02-23T06:47:54.612Z,98722.78
2023-02-23T06:50:41.689Z,98722.78
2023-02-23T06:53:28.816Z,98716.00
2023-02-23T06:56:15.492Z,98745.13
2023-02-23T06:59:01.914Z,98724.47
2023-02-23T07:01:48.543Z,98715.84
2023-02-23T07:04:35.029Z,98758.00
2023-02-23T07:07:21.158Z,98750.19
2023-02-23T07:10:07.811Z,98763.91
2023-02-23T07:12:54.487Z,98741.53
2023-02-23T07:15:41.558Z,98733.84
2023-02-23T07:18:28.663Z,98766.66
2023-02-23T07:21:15.036Z,98772.72
2023-02-23T07:24:04.752Z,98739.31
2023-02-23T07:26:52.064Z,98778.09
2023-02-23T07:29:38.465Z,98775.56
2023-02-23T07:32:25.095Z,98783.28
2023-02-23T07:35:11.742Z,98781.63
2023-02-23T07:37:58.341Z,98786.84
2023-02-23T07:40:44.977Z,98751.59
2023-02-23T07:43:31.533Z,98767.13
2023-02-23T07:46:17.942Z,98784.41
2023-02-23T07:49:04.459Z,98789.69
2023-02-23T07:51:50.888Z,98788.06
2023-02-23T07:54:37.287Z,98795.88
2023-02-23T07:57:25.012Z,98757.97
2023-02-23T08:00:12.092Z,98766.63
2023-02-23T08:03:02.617Z,98782.19
2023-02-23T08:05:48.890Z,98782.16
2023-02-23T08:08:35.483Z,98777.00
2023-02-23T08:11:22.377Z,98792.50
2023-02-23T08:14:10.584Z,98768.44
2023-02-23T08:16:57.246Z,98785.69
2023-02-23T08:19:43.887Z,98791.69
2023-02-23T08:22:35.535Z,98788.25
2023-02-23T08:25:30.051Z,98789.19
2023-02-23T08:28:16.354Z,98790.91
2023-02-23T08:31:02.952Z,98798.66
2023-02-23T08:33:49.821Z,98777.13
2023-02-23T08:36:36.353Z,98786.59
2023-02-23T08:39:23.041Z,98758.16
2023-02-23T08:42:09.564Z,98782.31
2023-02-23T08:44:55.856Z,98795.22
2023-02-23T08:47:42.333Z,98790.03
2023-02-23T08:50:28.606Z,98791.75
2023-02-23T08:53:14.853Z,98778.84
2023-02-23T08:56:03.963Z,98796.03
2023-02-23T08:58:51.548Z,98788.22
2023-02-23T09:01:38.238Z,98769.25
2023-02-23T09:04:24.832Z,98769.22
2023-02-23T09:07:15.589Z,98752.03
2023-02-23T09:10:02.270Z,98767.50
2023-02-23T09:12:48.764Z,98789.81
2023-02-23T09:15:35.130Z,98794.84
2023-02-23T09:18:23.948Z,98737.34
2023-02-23T09:21:22.083Z,98762.13
2023-02-23T09:24:08.693Z,98781.88
2023-02-23T09:26:55.300Z,98750.97
2023-02-23T09:29:42.371Z,98786.41
2023-02-23T09:32:28.694Z,98798.34
2023-02-23T09:35:17.863Z,98794.13
2023-02-23T09:38:06.461Z,98797.50
2023-02-23T09:40:54.380Z,98788.03
2023-02-23T09:43:55.301Z,98783.63
2023-02-23T09:46:50.651Z,98784.47
2023-02-23T09:49:40.905Z,98742.41
2023-02-23T09:52:49.352Z,98786.22
2023-02-23T09:55:38.535Z,98757.06
2023-02-23T09:58:30.786Z,98780.13
2023-02-23T10:01:20.409Z,98789.66
2023-02-23T10:04:40.767Z,98749.28
2023-02-23T10:07:27.003Z,98785.31
2023-02-23T10:10:42.298Z,98762.91
2023-02-23T10:13:39.594Z,98792.16
2023-02-23T10:16:43.096Z,98782.66
2023-02-23T10:19:41.677Z,98792.00
2023-02-23T10:22:29.091Z,98761.84
2023-02-23T10:25:24.094Z,98741.97
2023-02-23T10:28:21.379Z,98758.94
2023-02-23T10:31:26.808Z,98783.69
2023-02-23T10:34:17.799Z,98770.34
2023-02-23T10:37:06.649Z,98747.78
2023-02-23T10:39:53.528Z,98772.38
2023-02-23T10:42:40.140Z,98786.00
2023-02-23T10:45:28.698Z,98760.25
2023-02-23T10:48:22.427Z,98798.59
2023-02-23T10:51:20.482Z,98789.47
2023-02-23T10:54:43.033Z,98797.13
2023-02-23T10:57:32.448Z,98795.06
2023-02-23T11:00:30.751Z,98794.44
2023-02-23T11:03:32.399Z,98772.50
2023-02-23T11:06:45.637Z,98771.47
2023-02-23T11:09:45.582Z,98793.75
2023-02-23T11:12:43.601Z,98764.69
2023-02-23T11:15:49.870Z,98784.00
2023-02-23T11:18:39.310Z,98770.72
2023-02-23T11:21:29.505Z,98779.84
2023-02-23T11:24:22.399Z,98767.78
2023-02-23T11:27:21.143Z,98758.09
2023-02-23T11:30:11.338Z,98738.41
2023-02-23T11:33:10.810Z,98725.63
2023-02-23T11:35:59.791Z,98758.81
2023-02-23T11:38:47.807Z,98752.09
2023-02-23T11:41:37.245Z,98740.09
2023-02-23T11:44:24.018Z,98722.97
2023-02-23T11:47:19.068Z,98715.56
2023-02-23T11:50:06.841Z,98755.66
2023-02-23T11:53:04.824Z,98714.63
2023-02-23T11:55:54.837Z,98728.53
2023-02-23T11:58:49.758Z,98751.34
2023-02-23T12:01:45.281Z,98749.38
2023-02-23T12:04:40.358Z,98734.56
2023-02-23T12:07:41.387Z,98736.66
2023-02-23T12:10:49.339Z,98732.75
2023-02-23T12:13:42.218Z,98721.97
2023-02-23T12:16:35.773Z,98742.41
2023-02-23T12:19:55.714Z,98714.53
2023-02-23T12:23:20.037Z,98719.06
2023-02-23T12:26:21.477Z,98702.41
2023-02-23T12:29:44.428Z,98728.16
2023-02-23T12:32:40.717Z,98730.63
2023-02-23T12:35:42.290Z,98722.72
2023-02-23T12:38:48.647Z,98717.53
2023-02-23T12:42:00.152Z,98720.97
2023-02-23T12:44:53.889Z,98716.00
2023-02-23T12:47:59.491Z,98694.72
2023-02-23T12:50:56.005Z,98711.13
2023-02-23T12:53:44.264Z,98670.75
2023-02-23T12:56:55.734Z,98712.22
2023-02-23T12:59:56.954Z,98709.78
2023-02-23T13:02:58.632Z,98675.28
2023-02-23T13:06:22.757Z,98702.72
2023-02-23T13:09:57.417Z,98707.78
2023-02-23T13:12:52.976Z,98704.50
2023-02-23T13:15:45.623Z,98708.09
2023-02-23T13:18:59.501Z,98688.69
2023-02-23T13:21:54.113Z,98678.75
2023-02-23T13:24:46.133Z,98682.06
2023-02-23T13:27:40.344Z,98707.09
2023-02-23T13:30:32.334Z,98664.81
2023-02-23T13:33:34.961Z,98692.91
2023-02-23T13:36:31.188Z,98654.19
2023-02-23T13:39:55.148Z,98696.06
2023-02-23T13:42:56.533Z,98695.28
2023-02-23T13:46:10.780Z,98696.56
2023-02-23T13:49:20.554Z,98698.31
2023-02-23T13:52:22.299Z,98682.88
2023-02-23T13:55:29.434Z,98702.56
2023-02-23T13:58:29.456Z,98694.88
2023-02-23T14:01:23.531Z,98691.75
2023-02-23T14:04:37.254Z,98697.88
2023-02-23T14:07:30.040Z,98688.84
2023-02-23T14:10:21.524Z,98662.44
2023-02-23T14:13:14.095Z,98690.03
2023-02-23T14:16:16.782Z,98693.84
2023-02-23T14:19:15.527Z,98690.53
2023-02-23T14:22:10.503Z,98693.25
2023-02-23T14:25:34.456Z,98699.31
2023-02-23T14:28:35.275Z,98691.69
2023-02-23T14:31:23.477Z,98650.66
2023-02-23T14:34:13.635Z,98684.09
2023-02-23T14:37:14.893Z,98687.53
2023-02-23T14:40:17.186Z,98679.19
2023-02-23T14:43:24.029Z,98698.28
2023-02-23T14:46:22.072Z,98699.22
2023-02-23T14:49:16.647Z,98672.00
2023-02-23T14:52:24.549Z,98699.38
2023-02-23T14:55:10.972Z,98702.06
2023-02-23T14:57:58.037Z,98698.00
2023-02-23T15:00:44.954Z,98671.63
2023-02-23T15:03:31.534Z,98657.41
2023-02-23T15:06:19.038Z,98672.97
2023-02-23T15:09:06.886Z,98639.44
2023-02-23T15:11:55.733Z,98676.47
2023-02-23T15:14:43.377Z,98706.63
2023-02-23T15:17:32.852Z,98687.63
2023-02-23T15:20:28.791Z,98661.97
2023-02-23T15:23:19.206Z,98703.16
2023-02-23T15:26:31.743Z,98704.16
2023-02-23T15:29:21.039Z,98708.72
2023-02-23T15:32:26.375Z,98704.47
2023-02-23T15:35:13.535Z,98703.00
2023-02-23T15:38:14.083Z,98672.22
2023-02-23T15:41:15.359Z,98676.59
2023-02-23T15:44:09.865Z,98691.88
2023-02-23T15:47:02.979Z,98703.09
2023-02-23T15:49:50.174Z,98678.41
2023-02-23T15:52:44.945Z,98712.88
2023-02-23T15:55:37.590Z,98699.22
2023-02-23T15:58:30.667Z,98715.59
2023-02-23T16:01:24.851Z,98719.88
2023-02-23T16:04:14.417Z,98724.06
2023-02-23T16:07:23.451Z,98715.56
2023-02-23T16:10:23.680Z,98713.88
2023-02-23T16:13:13.669Z,98683.00
2023-02-23T16:16:00.120Z,98693.31
2023-02-23T16:18:53.164Z,98712.88
2023-02-23T16:21:39.579Z,98710.38
2023-02-23T16:24:29.407Z,98689.81
2023-02-23T16:27:16.104Z,98697.66
2023-02-23T16:30:23.310Z,98716.75
2023-02-23T16:33:19.720Z,98693.66
2023-02-23T16:36:15.202Z,98716.13
2023-02-23T16:39:03.306Z,98717.06
2023-02-23T16:41:50.836Z,98711.03
2023-02-23T16:44:43.750Z,98687.00
2023-02-23T16:47:42.243Z,98668.06
2023-02-23T16:50:29.738Z,98723.03
2023-02-23T16:53:17.048Z,98687.81
2023-02-23T16:56:12.444Z,98693.00
2023-02-23T16:59:02.481Z,98717.94
2023-02-23T17:01:50.102Z,98711.09
2023-02-23T17:04:36.540Z,98707.72
2023-02-23T17:07:24.169Z,98670.94
2023-02-23T17:10:25.551Z,98691.69
2023-02-23T17:13:18.639Z,98727.88
2023-02-23T17:16:07.465Z,98731.38
2023-02-23T17:18:54.163Z,98716.78
2023-02-23T17:21:40.454Z,98706.47
2023-02-23T17:24:26.700Z,98716.84
2023-02-23T17:27:12.981Z,98718.56
2023-02-23T17:29:59.506Z,98722.03
2023-02-23T17:32:46.405Z,98723.75
2023-02-23T17:35:33.612Z,98705.72
2023-02-23T17:38:21.528Z,98740.13
2023-02-23T17:41:09.769Z,98700.56
2023-02-23T17:43:56.483Z,98744.44
2023-02-23T17:46:42.997Z,98736.69
2023-02-23T17:49:29.363Z,98741.00
2023-02-23T17:52:15.706Z,98742.72
2023-02-23T17:55:02.120Z,98733.25
2023-02-23T17:57:48.732Z,98750.47
2023-02-23T18:00:38.834Z,98720.34
2023-02-23T18:03:31.872Z,98747.06
2023-02-23T18:06:19.669Z,98719.53
2023-02-23T18:09:06.127Z,98714.34
2023-02-23T18:11:52.624Z,98720.38
2023-02-23T18:14:39.161Z,98725.53
2023-02-23T18:17:25.617Z,98751.31
2023-02-23T18:20:14.910Z,98749.63
2023-02-23T18:23:01.492Z,98704.00
2023-02-23T18:25:49.412Z,98752.22
2023-02-23T18:28:36.168Z,98744.41
2023-02-23T18:31:28.064Z,98746.16
2023-02-23T18:34:14.746Z,98699.66
2023-02-23T18:37:03.474Z,98720.28
2023-02-23T18:39:53.082Z,98710.00
2023-02-23T18:42:39.599Z,98703.09
2023-02-23T18:45:26.300Z,98742.69
2023-02-23T18:48:14.287Z,98718.59
2023-02-23T18:51:01.501Z,98751.34
2023-02-23T18:53:52.447Z,98689.34
2023-02-23T18:56:40.140Z,98734.97
2023-02-23T18:59:26.810Z,98747.91
2023-02-23T19:02:13.406Z,98731.56
2023-02-23T19:05:02.925Z,98734.13
2023-02-23T19:07:49.455Z,98744.44
2023-02-23T19:10:36.315Z,98733.22
2023-02-23T19:13:22.753Z,98688.50
2023-02-23T19:16:09.021Z,98738.38
2023-02-23T19:18:55.820Z,98732.38
2023-02-23T19:21:42.432Z,98740.97
2023-02-23T19:24:29.033Z,98737.56
2023-02-23T19:27:15.939Z,98709.16
2023-02-23T19:30:02.414Z,98694.53
2023-02-23T19:32:49.241Z,98730.69
2023-02-23T19:35:38.972Z,98718.66
2023-02-23T19:38:27.438Z,98724.63
2023-02-23T19:41:17.691Z,98725.53
2023-02-23T19:44:04.332Z,98691.09
2023-02-23T19:46:51.210Z,98725.50
2023-02-23T19:49:37.446Z,98730.63
2023-02-23T19:52:24.869Z,98710.00
2023-02-23T19:55:12.010Z,98718.59
2023-02-23T19:57:58.689Z,98734.94
2023-02-23T20:00:47.014Z,98729.75
2023-02-23T20:03:34.044Z,98727.19
2023-02-23T20:06:22.309Z,98735.78
2023-02-23T20:09:09.476Z,98737.50
2023-02-23T20:11:56.525Z,98737.50
2023-02-23T20:14:43.679Z,98706.50
2023-02-23T20:17:30.047Z,98731.47
2023-02-23T20:20:16.873Z,98738.38
2023-02-23T20:23:07.624Z,98734.91
2023-02-23T20:25:53.720Z,98720.31
2023-02-23T20:28:40.848Z,98736.63
2023-02-23T20:31:35.684Z,98734.06
2023-02-23T20:34:24.425Z,98735.75
2023-02-23T20:37:12.059Z,98716.84
2023-02-23T20:39:58.529Z,98697.03
2023-02-23T20:42:47.685Z,98741.84
2023-02-23T20:45:34.303Z,98737.53
2023-02-23T20:48:21.038Z,98728.06
2023-02-23T20:51:13.619Z,98707.41
2023-02-23T20:54:00.081Z,98702.25
2023-02-23T20:56:46.642Z,98711.69
2023-02-23T20:59:37.916Z,98712.59
2023-02-23T21:02:24.538Z,98737.53
2023-02-23T21:05:12.260Z,98728.06
2023-02-23T21:08:06.038Z,98730.63
2023-02-23T21:10:52.446Z,98721.13
2023-02-23T21:13:39.290Z,98700.47
2023-02-23T21:16:26.435Z,98729.75
2023-02-23T21:19:14.800Z,98706.53
2023-02-23T21:22:01.799Z,98715.97
2023-02-23T21:24:48.065Z,98637.69
2023-02-23T21:27:34.573Z,98708.25
2023-02-23T21:30:24.048Z,98728.06
2023-02-23T21:33:10.221Z,98732.34
2023-02-23T21:35:58.627Z,98681.59
2023-02-23T21:38:45.469Z,98730.69
2023-02-23T21:41:33.688Z,98712.63
2023-02-23T21:44:20.311Z,98726.41
2023-02-23T21:47:07.211Z,98696.25
2023-02-23T21:49:54.367Z,98700.53
2023-02-23T21:52:45.086Z,98688.50
2023-02-23T21:55:31.653Z,98699.66
2023-02-23T21:58:18.045Z,98722.03
2023-02-23T22:01:13.381Z,98722.94
2023-02-23T22:04:00.443Z,98716.94
2023-02-23T22:06:46.839Z,98659.25
2023-02-23T22:09:33.415Z,98675.56
2023-02-23T22:12:19.890Z,98689.34
2023-02-23T22:15:16.285Z,98719.44
2023-02-23T22:18:02.685Z,98709.97
2023-02-23T22:20:56.180Z,98717.75
2023-02-23T22:23:43.894Z,98697.94
2023-02-23T22:26:30.401Z,98718.59
2023-02-23T22:29:17.115Z,98701.38
2023-02-23T22:32:03.636Z,98685.88
2023-02-23T22:34:50.251Z,98706.53
2023-02-23T22:37:36.636Z,98710.00
2023-02-23T22:40:23.905Z,98657.50
2023-02-23T22:43:11.210Z,98689.31
2023-02-23T22:45:58.011Z,98685.03
2023-02-23T22:48:45.110Z,98692.78
2023-02-23T22:51:31.919Z,98712.53
2023-02-23T22:54:20.421Z,98693.66
2023-02-23T22:57:06.996Z,98676.44
2023-02-23T23:00:00.427Z,98668.75
2023-02-23T23:02:47.056Z,98696.28
2023-02-23T23:05:33.772Z,98694.53
2023-02-23T23:08:20.524Z,98643.78
2023-02-23T23:11:29.898Z,98691.06
2023-02-23T23:14:19.290Z,98679.03
2023-02-23T23:17:05.439Z,98677.31
2023-02-23T23:19:51.620Z,98642.88
2023-02-23T23:22:38.459Z,98688.47
2023-02-23T23:25:24.730Z,98668.72
2023-02-23T23:28:14.362Z,98674.75
2023-02-23T23:31:02.529Z,98681.63
2023-02-23T23:33:51.655Z,98678.19
2023-02-23T23:36:46.187Z,98661.84
2023-02-23T23:39:32.495Z,98593.09
2023-02-23T23:42:20.296Z,98657.56
2023-02-23T23:45:09.827Z,98684.25
2023-02-23T23:47:56.528Z,98667.91
2023-02-23T23:50:42.968Z,98611.97
2023-02-23T23:53:29.413Z,98593.94
2023-02-23T23:56:15.867Z,98661.88
2023-02-23T23:59:02.406Z,98636.06
